sensor_id;sensor_type;location;lat;lon;timestamp;temperature;humidity
3001;DHT22;1510;51.072;6.678;2023-06-22T00:01:05;19.70;98.40
3001;DHT22;1510;51.072;6.678;2023-06-22T00:03:31;19.70;99.30
3001;DHT22;1510;51.072;6.678;2023-06-22T00:06:00;19.60;99.90
3001;DHT22;1510;51.072;6.678;2023-06-22T00:08:27;19.50;99.90
3001;DHT22;1510;51.072;6.678;2023-06-22T00:10:53;19.50;99.90
3001;DHT22;1510;51.072;6.678;2023-06-22T00:13:21;19.40;99.90
3001;DHT22;1510;51.072;6.678;2023-06-22T00:15:48;19.40;99.90
3001;DHT22;1510;51.072;6.678;2023-06-22T00:18:15;19.40;99.90
3001;DHT22;1510;51.072;6.678;2023-06-22T00:20:42;19.50;99.90
3001;DHT22;1510;51.072;6.678;2023-06-22T00:23:12;19.50;99.90
3001;DHT22;1510;51.072;6.678;2023-06-22T00:25:41;19.50;99.90
3001;DHT22;1510;51.072;6.678;2023-06-22T00:28:09;19.50;99.90
3001;DHT22;1510;51.072;6.678;2023-06-22T00:30:36;19.50;99.90
3001;DHT22;1510;51.072;6.678;2023-06-22T00:33:03;19.50;99.90
3001;DHT22;1510;51.072;6.678;2023-06-22T00:35:33;19.50;99.90
3001;DHT22;1510;51.072;6.678;2023-06-22T00:38:01;19.40;99.90
3001;DHT22;1510;51.072;6.678;2023-06-22T00:40:31;19.40;99.90
3001;DHT22;1510;51.072;6.678;2023-06-22T00:42:59;19.40;99.90
3001;DHT22;1510;51.072;6.678;2023-06-22T00:45:26;19.40;99.90
3001;DHT22;1510;51.072;6.678;2023-06-22T00:47:55;19.40;99.90
3001;DHT22;1510;51.072;6.678;2023-06-22T00:50:27;19.30;99.90
3001;DHT22;1510;51.072;6.678;2023-06-22T00:53:00;19.30;99.90
3001;DHT22;1510;51.072;6.678;2023-06-22T00:55:35;19.30;99.90
3001;DHT22;1510;51.072;6.678;2023-06-22T00:58:04;19.30;99.90
3001;DHT22;1510;51.072;6.678;2023-06-22T01:00:35;19.30;99.90
3001;DHT22;1510;51.072;6.678;2023-06-22T01:03:03;19.30;99.90
3001;DHT22;1510;51.072;6.678;2023-06-22T01:05:34;19.30;99.90
3001;DHT22;1510;51.072;6.678;2023-06-22T01:08:12;19.20;99.90
3001;DHT22;1510;51.072;6.678;2023-06-22T01:10:46;19.10;99.90
3001;DHT22;1510;51.072;6.678;2023-06-22T01:13:21;19.10;99.90
3001;DHT22;1510;51.072;6.678;2023-06-22T01:15:58;19.10;99.90
3001;DHT22;1510;51.072;6.678;2023-06-22T01:18:29;19.00;99.90
3001;DHT22;1510;51.072;6.678;2023-06-22T01:20:57;19.00;99.90
3001;DHT22;1510;51.072;6.678;2023-06-22T01:23:33;19.00;99.90
3001;DHT22;1510;51.072;6.678;2023-06-22T01:26:12;19.00;99.90
3001;DHT22;1510;51.072;6.678;2023-06-22T01:28:47;18.90;99.90
3001;DHT22;1510;51.072;6.678;2023-06-22T01:31:17;18.90;99.90
3001;DHT22;1510;51.072;6.678;2023-06-22T01:36:31;18.80;99.90
3001;DHT22;1510;51.072;6.678;2023-06-22T01:38:59;18.80;99.90
3001;DHT22;1510;51.072;6.678;2023-06-22T01:41:28;18.80;99.90
3001;DHT22;1510;51.072;6.678;2023-06-22T01:43:57;18.70;99.90
3001;DHT22;1510;51.072;6.678;2023-06-22T01:46:25;18.70;99.90
3001;DHT22;1510;51.072;6.678;2023-06-22T01:48:52;18.70;99.90
3001;DHT22;1510;51.072;6.678;2023-06-22T01:51:19;18.70;99.90
3001;DHT22;1510;51.072;6.678;2023-06-22T01:53:46;18.60;99.90
3001;DHT22;1510;51.072;6.678;2023-06-22T01:56:16;18.60;99.90
3001;DHT22;1510;51.072;6.678;2023-06-22T01:58:48;18.60;99.90
3001;DHT22;1510;51.072;6.678;2023-06-22T02:01:24;18.60;99.90
3001;DHT22;1510;51.072;6.678;2023-06-22T02:04:01;18.60;99.90
3001;DHT22;1510;51.072;6.678;2023-06-22T02:06:33;18.60;99.90
3001;DHT22;1510;51.072;6.678;2023-06-22T02:09:07;18.60;99.90
3001;DHT22;1510;51.072;6.678;2023-06-22T02:11:36;18.70;99.90
3001;DHT22;1510;51.072;6.678;2023-06-22T02:14:05;18.70;99.90
3001;DHT22;1510;51.072;6.678;2023-06-22T02:16:35;18.70;99.90
3001;DHT22;1510;51.072;6.678;2023-06-22T02:19:03;18.70;99.90
3001;DHT22;1510;51.072;6.678;2023-06-22T02:21:32;18.70;99.90
3001;DHT22;1510;51.072;6.678;2023-06-22T02:23:59;18.70;99.90
3001;DHT22;1510;51.072;6.678;2023-06-22T02:26:26;18.70;99.90
3001;DHT22;1510;51.072;6.678;2023-06-22T02:28:54;18.80;99.90
3001;DHT22;1510;51.072;6.678;2023-06-22T02:31:21;18.70;99.90
3001;DHT22;1510;51.072;6.678;2023-06-22T02:33:49;18.80;99.90
3001;DHT22;1510;51.072;6.678;2023-06-22T02:36:16;18.80;99.90
3001;DHT22;1510;51.072;6.678;2023-06-22T02:38:47;18.80;99.90
3001;DHT22;1510;51.072;6.678;2023-06-22T02:41:14;18.80;99.90
3001;DHT22;1510;51.072;6.678;2023-06-22T02:43:44;18.80;99.90
3001;DHT22;1510;51.072;6.678;2023-06-22T02:46:12;18.80;99.90
3001;DHT22;1510;51.072;6.678;2023-06-22T02:48:39;18.80;99.90
3001;DHT22;1510;51.072;6.678;2023-06-22T02:51:07;18.90;99.90
3001;DHT22;1510;51.072;6.678;2023-06-22T02:53:34;18.90;99.90
3001;DHT22;1510;51.072;6.678;2023-06-22T02:56:02;18.90;99.90
3001;DHT22;1510;51.072;6.678;2023-06-22T02:58:31;19.00;99.90
3001;DHT22;1510;51.072;6.678;2023-06-22T03:01:04;19.00;99.90
3001;DHT22;1510;51.072;6.678;2023-06-22T03:03:31;19.10;99.90
3001;DHT22;1510;51.072;6.678;2023-06-22T03:05:58;19.10;99.90
3001;DHT22;1510;51.072;6.678;2023-06-22T03:08:28;19.20;99.90
3001;DHT22;1510;51.072;6.678;2023-06-22T03:10:55;19.20;99.90
3001;DHT22;1510;51.072;6.678;2023-06-22T03:13:22;19.20;99.90
3001;DHT22;1510;51.072;6.678;2023-06-22T03:15:49;19.20;99.90
3001;DHT22;1510;51.072;6.678;2023-06-22T03:18:16;19.20;99.90
3001;DHT22;1510;51.072;6.678;2023-06-22T03:20:43;19.20;99.90
3001;DHT22;1510;51.072;6.678;2023-06-22T03:23:10;19.20;99.90
3001;DHT22;1510;51.072;6.678;2023-06-22T03:25:38;19.20;99.90
3001;DHT22;1510;51.072;6.678;2023-06-22T03:28:05;19.30;99.90
3001;DHT22;1510;51.072;6.678;2023-06-22T03:30:32;19.30;99.90
3001;DHT22;1510;51.072;6.678;2023-06-22T03:32:59;19.20;99.90
3001;DHT22;1510;51.072;6.678;2023-06-22T03:35:26;19.20;99.90
3001;DHT22;1510;51.072;6.678;2023-06-22T03:37:53;19.20;99.90
3001;DHT22;1510;51.072;6.678;2023-06-22T03:40:20;19.20;99.90
3001;DHT22;1510;51.072;6.678;2023-06-22T03:42:48;19.30;99.90
3001;DHT22;1510;51.072;6.678;2023-06-22T03:45:15;19.30;99.90
3001;DHT22;1510;51.072;6.678;2023-06-22T03:47:42;19.40;99.90
3001;DHT22;1510;51.072;6.678;2023-06-22T03:50:09;19.50;99.90
3001;DHT22;1510;51.072;6.678;2023-06-22T03:52:36;19.50;99.90
3001;DHT22;1510;51.072;6.678;2023-06-22T03:55:04;19.50;99.90
3001;DHT22;1510;51.072;6.678;2023-06-22T03:57:31;19.50;99.90
3001;DHT22;1510;51.072;6.678;2023-06-22T04:00:00;19.50;99.90
3001;DHT22;1510;51.072;6.678;2023-06-22T04:02:28;19.50;99.90
3001;DHT22;1510;51.072;6.678;2023-06-22T04:04:55;19.50;99.90
3001;DHT22;1510;51.072;6.678;2023-06-22T04:07:22;19.50;99.90
3001;DHT22;1510;51.072;6.678;2023-06-22T04:09:49;19.50;99.90
3001;DHT22;1510;51.072;6.678;2023-06-22T04:12:16;19.40;99.90
3001;DHT22;1510;51.072;6.678;2023-06-22T04:14:42;19.40;99.90
3001;DHT22;1510;51.072;6.678;2023-06-22T04:17:11;19.40;99.90
3001;DHT22;1510;51.072;6.678;2023-06-22T04:19:39;19.50;99.90
3001;DHT22;1510;51.072;6.678;2023-06-22T04:22:06;19.60;99.90
3001;DHT22;1510;51.072;6.678;2023-06-22T04:24:33;19.60;99.90
3001;DHT22;1510;51.072;6.678;2023-06-22T04:27:00;19.70;99.90
3001;DHT22;1510;51.072;6.678;2023-06-22T04:29:28;19.70;99.90
3001;DHT22;1510;51.072;6.678;2023-06-22T04:31:55;19.60;99.90
3001;DHT22;1510;51.072;6.678;2023-06-22T04:34:25;19.60;99.90
3001;DHT22;1510;51.072;6.678;2023-06-22T04:36:53;19.60;99.90
3001;DHT22;1510;51.072;6.678;2023-06-22T04:39:21;19.60;99.90
3001;DHT22;1510;51.072;6.678;2023-06-22T04:41:47;19.60;99.90
3001;DHT22;1510;51.072;6.678;2023-06-22T04:44:17;19.60;99.90
3001;DHT22;1510;51.072;6.678;2023-06-22T04:46:50;19.50;99.90
3001;DHT22;1510;51.072;6.678;2023-06-22T04:49:20;19.50;99.90
3001;DHT22;1510;51.072;6.678;2023-06-22T04:51:48;19.60;99.90
3001;DHT22;1510;51.072;6.678;2023-06-22T04:54:17;19.60;99.90
3001;DHT22;1510;51.072;6.678;2023-06-22T04:56:44;19.70;99.90
3001;DHT22;1510;51.072;6.678;2023-06-22T04:59:12;19.70;99.90
3001;DHT22;1510;51.072;6.678;2023-06-22T05:01:39;19.80;99.90
3001;DHT22;1510;51.072;6.678;2023-06-22T05:04:06;19.80;99.90
3001;DHT22;1510;51.072;6.678;2023-06-22T05:06:34;19.90;99.90
3001;DHT22;1510;51.072;6.678;2023-06-22T05:09:02;20.10;99.90
3001;DHT22;1510;51.072;6.678;2023-06-22T05:11:31;20.20;99.90
3001;DHT22;1510;51.072;6.678;2023-06-22T05:13:58;20.30;99.90
3001;DHT22;1510;51.072;6.678;2023-06-22T05:16:25;20.50;99.90
3001;DHT22;1510;51.072;6.678;2023-06-22T05:18:52;20.60;99.90
3001;DHT22;1510;51.072;6.678;2023-06-22T05:21:22;20.60;99.90
3001;DHT22;1510;51.072;6.678;2023-06-22T05:23:50;20.70;99.90
3001;DHT22;1510;51.072;6.678;2023-06-22T05:26:18;20.70;99.90
3001;DHT22;1510;51.072;6.678;2023-06-22T05:28:45;20.70;99.90
3001;DHT22;1510;51.072;6.678;2023-06-22T05:31:14;20.70;99.90
3001;DHT22;1510;51.072;6.678;2023-06-22T05:33:41;20.70;99.90
3001;DHT22;1510;51.072;6.678;2023-06-22T05:36:08;20.70;99.90
3001;DHT22;1510;51.072;6.678;2023-06-22T05:38:35;20.70;99.90
3001;DHT22;1510;51.072;6.678;2023-06-22T05:41:02;20.70;99.90
3001;DHT22;1510;51.072;6.678;2023-06-22T05:43:31;20.60;99.90
3001;DHT22;1510;51.072;6.678;2023-06-22T05:45:58;20.60;99.90
3001;DHT22;1510;51.072;6.678;2023-06-22T05:48:25;20.60;99.90
3001;DHT22;1510;51.072;6.678;2023-06-22T05:50:52;20.50;99.90
3001;DHT22;1510;51.072;6.678;2023-06-22T05:53:19;20.50;99.90
3001;DHT22;1510;51.072;6.678;2023-06-22T05:55:46;20.50;99.90
3001;DHT22;1510;51.072;6.678;2023-06-22T05:58:14;20.50;99.90
3001;DHT22;1510;51.072;6.678;2023-06-22T06:00:42;20.50;99.90
3001;DHT22;1510;51.072;6.678;2023-06-22T06:03:10;20.50;99.90
3001;DHT22;1510;51.072;6.678;2023-06-22T06:05:37;20.60;99.90
3001;DHT22;1510;51.072;6.678;2023-06-22T06:08:05;20.40;99.90
3001;DHT22;1510;51.072;6.678;2023-06-22T06:10:33;20.60;99.90
3001;DHT22;1510;51.072;6.678;2023-06-22T06:13:00;20.60;99.90
3001;DHT22;1510;51.072;6.678;2023-06-22T06:15:29;20.50;99.90
3001;DHT22;1510;51.072;6.678;2023-06-22T06:17:58;20.40;99.90
3001;DHT22;1510;51.072;6.678;2023-06-22T06:20:26;20.10;99.90
3001;DHT22;1510;51.072;6.678;2023-06-22T06:22:54;19.90;99.90
3001;DHT22;1510;51.072;6.678;2023-06-22T06:25:21;19.80;99.90
3001;DHT22;1510;51.072;6.678;2023-06-22T06:27:50;19.70;99.90
3001;DHT22;1510;51.072;6.678;2023-06-22T06:30:19;19.60;99.90
3001;DHT22;1510;51.072;6.678;2023-06-22T06:32:46;19.50;99.90
3001;DHT22;1510;51.072;6.678;2023-06-22T06:35:15;19.50;99.90
3001;DHT22;1510;51.072;6.678;2023-06-22T06:37:43;19.50;99.90
3001;DHT22;1510;51.072;6.678;2023-06-22T06:40:12;19.60;99.90
3001;DHT22;1510;51.072;6.678;2023-06-22T06:42:40;19.70;99.90
3001;DHT22;1510;51.072;6.678;2023-06-22T06:45:10;19.70;99.90
3001;DHT22;1510;51.072;6.678;2023-06-22T06:47:37;19.80;99.90
3001;DHT22;1510;51.072;6.678;2023-06-22T06:50:06;19.80;99.90
3001;DHT22;1510;51.072;6.678;2023-06-22T06:52:35;19.90;99.90
3001;DHT22;1510;51.072;6.678;2023-06-22T06:55:02;20.10;99.90
3001;DHT22;1510;51.072;6.678;2023-06-22T06:57:30;20.30;99.90
3001;DHT22;1510;51.072;6.678;2023-06-22T06:59:57;20.40;99.90
3001;DHT22;1510;51.072;6.678;2023-06-22T07:02:26;20.70;99.90
3001;DHT22;1510;51.072;6.678;2023-06-22T07:04:53;20.90;99.90
3001;DHT22;1510;51.072;6.678;2023-06-22T07:07:21;21.10;99.90
3001;DHT22;1510;51.072;6.678;2023-06-22T07:09:50;21.40;99.90
3001;DHT22;1510;51.072;6.678;2023-06-22T07:12:17;21.70;99.90
3001;DHT22;1510;51.072;6.678;2023-06-22T07:14:44;22.00;99.90
3001;DHT22;1510;51.072;6.678;2023-06-22T07:17:11;22.40;99.90
3001;DHT22;1510;51.072;6.678;2023-06-22T07:19:38;22.70;99.90
3001;DHT22;1510;51.072;6.678;2023-06-22T07:22:06;22.90;99.90
3001;DHT22;1510;51.072;6.678;2023-06-22T07:24:32;22.70;99.90
3001;DHT22;1510;51.072;6.678;2023-06-22T07:27:01;22.70;99.90
3001;DHT22;1510;51.072;6.678;2023-06-22T07:29:29;22.40;99.90
3001;DHT22;1510;51.072;6.678;2023-06-22T07:31:57;22.50;99.90
3001;DHT22;1510;51.072;6.678;2023-06-22T07:34:26;22.60;99.90
3001;DHT22;1510;51.072;6.678;2023-06-22T07:36:53;23.00;99.90
3001;DHT22;1510;51.072;6.678;2023-06-22T07:39:20;23.50;99.90
3001;DHT22;1510;51.072;6.678;2023-06-22T07:41:51;23.70;99.30
3001;DHT22;1510;51.072;6.678;2023-06-22T07:44:19;23.60;98.70
3001;DHT22;1510;51.072;6.678;2023-06-22T07:46:46;23.60;99.70
3001;DHT22;1510;51.072;6.678;2023-06-22T07:49:13;24.00;99.90
3001;DHT22;1510;51.072;6.678;2023-06-22T07:51:40;24.30;99.90
3001;DHT22;1510;51.072;6.678;2023-06-22T07:54:09;24.70;99.90
3001;DHT22;1510;51.072;6.678;2023-06-22T07:56:36;25.00;98.60
3001;DHT22;1510;51.072;6.678;2023-06-22T07:59:03;25.20;99.10
3001;DHT22;1510;51.072;6.678;2023-06-22T08:01:31;25.50;97.30
3001;DHT22;1510;51.072;6.678;2023-06-22T08:03:58;25.90;97.50
3001;DHT22;1510;51.072;6.678;2023-06-22T08:06:25;26.40;96.60
3001;DHT22;1510;51.072;6.678;2023-06-22T08:08:52;26.50;91.90
3001;DHT22;1510;51.072;6.678;2023-06-22T08:11:20;26.50;93.30
3001;DHT22;1510;51.072;6.678;2023-06-22T08:13:49;26.80;93.90
3001;DHT22;1510;51.072;6.678;2023-06-22T08:16:16;27.00;92.60
3001;DHT22;1510;51.072;6.678;2023-06-22T08:18:44;26.80;90.80
3001;DHT22;1510;51.072;6.678;2023-06-22T08:21:11;26.90;90.80
3001;DHT22;1510;51.072;6.678;2023-06-22T08:23:38;27.30;87.40
3001;DHT22;1510;51.072;6.678;2023-06-22T08:26:05;27.60;86.60
3001;DHT22;1510;51.072;6.678;2023-06-22T08:28:31;28.00;86.40
3001;DHT22;1510;51.072;6.678;2023-06-22T08:30:59;27.90;78.80
3001;DHT22;1510;51.072;6.678;2023-06-22T08:33:27;28.10;76.80
3001;DHT22;1510;51.072;6.678;2023-06-22T08:35:58;28.00;78.70
3001;DHT22;1510;51.072;6.678;2023-06-22T08:38:25;28.20;76.90
3001;DHT22;1510;51.072;6.678;2023-06-22T08:40:52;28.50;73.90
3001;DHT22;1510;51.072;6.678;2023-06-22T08:43:18;28.90;73.20
3001;DHT22;1510;51.072;6.678;2023-06-22T08:45:45;28.90;69.10
3001;DHT22;1510;51.072;6.678;2023-06-22T08:48:12;29.10;66.00
3001;DHT22;1510;51.072;6.678;2023-06-22T08:50:39;28.80;63.90
3001;DHT22;1510;51.072;6.678;2023-06-22T08:53:08;29.00;64.50
3001;DHT22;1510;51.072;6.678;2023-06-22T08:55:35;28.70;62.90
3001;DHT22;1510;51.072;6.678;2023-06-22T08:58:02;28.20;67.00
3001;DHT22;1510;51.072;6.678;2023-06-22T09:00:29;28.60;68.90
3001;DHT22;1510;51.072;6.678;2023-06-22T09:03:00;28.90;65.40
3001;DHT22;1510;51.072;6.678;2023-06-22T09:05:27;28.40;64.60
3001;DHT22;1510;51.072;6.678;2023-06-22T09:07:53;28.10;63.00
3001;DHT22;1510;51.072;6.678;2023-06-22T09:10:22;28.10;66.50
3001;DHT22;1510;51.072;6.678;2023-06-22T09:12:49;28.30;65.00
3001;DHT22;1510;51.072;6.678;2023-06-22T09:15:16;28.70;67.10
3001;DHT22;1510;51.072;6.678;2023-06-22T09:17:43;29.40;61.00
3001;DHT22;1510;51.072;6.678;2023-06-22T09:20:11;29.70;57.10
3001;DHT22;1510;51.072;6.678;2023-06-22T09:22:38;30.00;54.50
3001;DHT22;1510;51.072;6.678;2023-06-22T09:25:06;29.60;54.00
3001;DHT22;1510;51.072;6.678;2023-06-22T09:27:34;30.10;52.70
3001;DHT22;1510;51.072;6.678;2023-06-22T09:30:01;30.10;53.50
3001;DHT22;1510;51.072;6.678;2023-06-22T09:32:29;30.20;50.20
3001;DHT22;1510;51.072;6.678;2023-06-22T09:34:56;29.80;46.00
3001;DHT22;1510;51.072;6.678;2023-06-22T09:37:23;30.60;46.70
3001;DHT22;1510;51.072;6.678;2023-06-22T09:39:49;30.90;44.20
3001;DHT22;1510;51.072;6.678;2023-06-22T09:42:16;30.40;37.70
3001;DHT22;1510;51.072;6.678;2023-06-22T09:44:44;30.80;44.10
3001;DHT22;1510;51.072;6.678;2023-06-22T09:47:11;30.80;41.10
3001;DHT22;1510;51.072;6.678;2023-06-22T09:49:38;30.00;39.10
3001;DHT22;1510;51.072;6.678;2023-06-22T09:52:06;30.90;41.20
3001;DHT22;1510;51.072;6.678;2023-06-22T09:54:33;31.30;35.30
3001;DHT22;1510;51.072;6.678;2023-06-22T09:56:59;30.90;32.50
3001;DHT22;1510;51.072;6.678;2023-06-22T09:59:26;31.00;35.00
3001;DHT22;1510;51.072;6.678;2023-06-22T10:01:55;30.90;34.90
3001;DHT22;1510;51.072;6.678;2023-06-22T10:04:21;30.50;34.60
3001;DHT22;1510;51.072;6.678;2023-06-22T10:06:50;30.10;34.30
3001;DHT22;1510;51.072;6.678;2023-06-22T10:09:17;29.70;35.50
3001;DHT22;1510;51.072;6.678;2023-06-22T10:11:43;29.10;37.40
3001;DHT22;1510;51.072;6.678;2023-06-22T10:14:10;28.90;42.80
3001;DHT22;1510;51.072;6.678;2023-06-22T10:16:37;28.60;40.90
3001;DHT22;1510;51.072;6.678;2023-06-22T10:19:05;28.10;39.90
3001;DHT22;1510;51.072;6.678;2023-06-22T10:21:32;27.80;41.90
3001;DHT22;1510;51.072;6.678;2023-06-22T10:24:00;27.60;44.40
3001;DHT22;1510;51.072;6.678;2023-06-22T10:26:31;27.40;49.70
3001;DHT22;1510;51.072;6.678;2023-06-22T10:28:58;27.20;41.50
3001;DHT22;1510;51.072;6.678;2023-06-22T10:31:25;27.20;58.40
3001;DHT22;1510;51.072;6.678;2023-06-22T10:33:53;26.60;97.70
3001;DHT22;1510;51.072;6.678;2023-06-22T10:36:22;25.60;99.90
3001;DHT22;1510;51.072;6.678;2023-06-22T10:38:49;25.30;99.90
3001;DHT22;1510;51.072;6.678;2023-06-22T10:41:16;24.70;99.90
3001;DHT22;1510;51.072;6.678;2023-06-22T10:43:43;24.00;99.90
3001;DHT22;1510;51.072;6.678;2023-06-22T10:46:10;23.50;99.90
3001;DHT22;1510;51.072;6.678;2023-06-22T10:48:36;23.10;99.90
3001;DHT22;1510;51.072;6.678;2023-06-22T10:51:03;22.70;99.90
3001;DHT22;1510;51.072;6.678;2023-06-22T10:53:32;22.40;99.90
3001;DHT22;1510;51.072;6.678;2023-06-22T10:55:59;22.20;99.90
3001;DHT22;1510;51.072;6.678;2023-06-22T10:58:26;22.10;99.90
3001;DHT22;1510;51.072;6.678;2023-06-22T11:00:53;22.00;99.90
3001;DHT22;1510;51.072;6.678;2023-06-22T11:03:20;21.80;99.90
3001;DHT22;1510;51.072;6.678;2023-06-22T11:05:47;21.70;99.90
3001;DHT22;1510;51.072;6.678;2023-06-22T11:08:14;21.50;99.90
3001;DHT22;1510;51.072;6.678;2023-06-22T11:10:43;21.40;99.90
3001;DHT22;1510;51.072;6.678;2023-06-22T11:13:10;21.30;99.90
3001;DHT22;1510;51.072;6.678;2023-06-22T11:15:37;21.30;99.90
3001;DHT22;1510;51.072;6.678;2023-06-22T11:18:05;21.10;99.90
3001;DHT22;1510;51.072;6.678;2023-06-22T11:20:33;21.10;99.90
3001;DHT22;1510;51.072;6.678;2023-06-22T11:23:04;21.10;99.90
3001;DHT22;1510;51.072;6.678;2023-06-22T11:25:31;21.10;99.90
3001;DHT22;1510;51.072;6.678;2023-06-22T11:27:59;21.10;99.90
3001;DHT22;1510;51.072;6.678;2023-06-22T11:30:26;21.10;99.90
3001;DHT22;1510;51.072;6.678;2023-06-22T11:32:53;21.00;99.90
3001;DHT22;1510;51.072;6.678;2023-06-22T11:35:20;21.00;99.90
3001;DHT22;1510;51.072;6.678;2023-06-22T11:37:47;21.00;99.90
3001;DHT22;1510;51.072;6.678;2023-06-22T11:40:14;21.20;99.90
3001;DHT22;1510;51.072;6.678;2023-06-22T11:42:41;21.30;99.90
3001;DHT22;1510;51.072;6.678;2023-06-22T11:45:09;21.40;99.90
3001;DHT22;1510;51.072;6.678;2023-06-22T11:47:36;21.40;99.90
3001;DHT22;1510;51.072;6.678;2023-06-22T11:50:06;21.70;99.90
3001;DHT22;1510;51.072;6.678;2023-06-22T11:52:33;22.00;99.90
3001;DHT22;1510;51.072;6.678;2023-06-22T11:55:01;22.40;99.90
3001;DHT22;1510;51.072;6.678;2023-06-22T11:57:29;22.40;99.90
3001;DHT22;1510;51.072;6.678;2023-06-22T11:59:56;22.70;99.90
3001;DHT22;1510;51.072;6.678;2023-06-22T12:02:24;22.80;99.90
3001;DHT22;1510;51.072;6.678;2023-06-22T12:04:51;22.70;99.90
3001;DHT22;1510;51.072;6.678;2023-06-22T12:07:20;22.60;99.90
3001;DHT22;1510;51.072;6.678;2023-06-22T12:09:47;22.90;99.90
3001;DHT22;1510;51.072;6.678;2023-06-22T12:12:14;23.00;99.90
3001;DHT22;1510;51.072;6.678;2023-06-22T12:14:41;22.90;99.90
3001;DHT22;1510;51.072;6.678;2023-06-22T12:17:08;22.60;99.90
3001;DHT22;1510;51.072;6.678;2023-06-22T12:19:36;22.70;99.90
3001;DHT22;1510;51.072;6.678;2023-06-22T12:22:03;22.70;99.90
3001;DHT22;1510;51.072;6.678;2023-06-22T12:24:30;23.20;99.90
3001;DHT22;1510;51.072;6.678;2023-06-22T12:26:57;23.70;99.90
3001;DHT22;1510;51.072;6.678;2023-06-22T12:29:24;24.20;99.90
3001;DHT22;1510;51.072;6.678;2023-06-22T12:31:51;24.80;99.90
3001;DHT22;1510;51.072;6.678;2023-06-22T12:34:17;25.20;99.90
3001;DHT22;1510;51.072;6.678;2023-06-22T12:36:46;25.30;99.90
3001;DHT22;1510;51.072;6.678;2023-06-22T12:39:14;25.70;99.90
3001;DHT22;1510;51.072;6.678;2023-06-22T12:41:41;26.10;99.90
3001;DHT22;1510;51.072;6.678;2023-06-22T12:44:08;25.80;99.90
3001;DHT22;1510;51.072;6.678;2023-06-22T12:46:34;25.60;99.90
3001;DHT22;1510;51.072;6.678;2023-06-22T12:49:04;25.30;99.90
3001;DHT22;1510;51.072;6.678;2023-06-22T12:51:31;25.20;99.90
3001;DHT22;1510;51.072;6.678;2023-06-22T12:53:59;25.20;99.90
3001;DHT22;1510;51.072;6.678;2023-06-22T12:56:26;25.30;99.90
3001;DHT22;1510;51.072;6.678;2023-06-22T12:58:53;25.40;99.90
3001;DHT22;1510;51.072;6.678;2023-06-22T13:01:20;25.20;99.90
3001;DHT22;1510;51.072;6.678;2023-06-22T13:03:47;25.10;99.90
3001;DHT22;1510;51.072;6.678;2023-06-22T13:06:14;25.00;99.90
3001;DHT22;1510;51.072;6.678;2023-06-22T13:08:41;25.20;99.90
3001;DHT22;1510;51.072;6.678;2023-06-22T13:11:10;25.30;99.90
3001;DHT22;1510;51.072;6.678;2023-06-22T13:13:37;25.40;99.90
3001;DHT22;1510;51.072;6.678;2023-06-22T13:16:04;25.60;99.90
3001;DHT22;1510;51.072;6.678;2023-06-22T13:18:31;25.70;99.90
3001;DHT22;1510;51.072;6.678;2023-06-22T13:20:59;25.60;99.90
3001;DHT22;1510;51.072;6.678;2023-06-22T13:23:26;25.30;99.90
3001;DHT22;1510;51.072;6.678;2023-06-22T13:25:53;25.00;99.90
3001;DHT22;1510;51.072;6.678;2023-06-22T13:28:22;25.00;99.90
3001;DHT22;1510;51.072;6.678;2023-06-22T13:30:49;25.10;99.90
3001;DHT22;1510;51.072;6.678;2023-06-22T13:33:16;25.30;99.90
3001;DHT22;1510;51.072;6.678;2023-06-22T13:35:43;25.00;99.90
3001;DHT22;1510;51.072;6.678;2023-06-22T13:38:10;24.90;99.90
3001;DHT22;1510;51.072;6.678;2023-06-22T13:40:37;24.80;99.90
3001;DHT22;1510;51.072;6.678;2023-06-22T13:43:04;25.00;99.90
3001;DHT22;1510;51.072;6.678;2023-06-22T13:45:33;25.10;99.90
3001;DHT22;1510;51.072;6.678;2023-06-22T13:48:00;24.80;99.90
3001;DHT22;1510;51.072;6.678;2023-06-22T13:50:26;24.70;99.90
3001;DHT22;1510;51.072;6.678;2023-06-22T13:52:54;24.70;99.90
3001;DHT22;1510;51.072;6.678;2023-06-22T13:55:22;24.80;99.90
3001;DHT22;1510;51.072;6.678;2023-06-22T13:57:49;25.30;99.90
3001;DHT22;1510;51.072;6.678;2023-06-22T14:00:17;25.60;99.90
3001;DHT22;1510;51.072;6.678;2023-06-22T14:02:46;26.20;99.90
3001;DHT22;1510;51.072;6.678;2023-06-22T14:05:12;27.00;99.90
3001;DHT22;1510;51.072;6.678;2023-06-22T14:07:39;26.70;99.90
3001;DHT22;1510;51.072;6.678;2023-06-22T14:10:07;26.50;99.90
3001;DHT22;1510;51.072;6.678;2023-06-22T14:12:34;26.00;99.90
3001;DHT22;1510;51.072;6.678;2023-06-22T14:15:01;26.00;99.90
3001;DHT22;1510;51.072;6.678;2023-06-22T14:17:28;25.20;99.90
3001;DHT22;1510;51.072;6.678;2023-06-22T14:19:56;24.60;99.90
3001;DHT22;1510;51.072;6.678;2023-06-22T14:22:23;24.40;99.90
3001;DHT22;1510;51.072;6.678;2023-06-22T14:24:50;23.80;99.90
3001;DHT22;1510;51.072;6.678;2023-06-22T14:27:16;23.70;99.90
3001;DHT22;1510;51.072;6.678;2023-06-22T14:29:43;23.60;99.90
3001;DHT22;1510;51.072;6.678;2023-06-22T14:32:10;23.60;99.90
3001;DHT22;1510;51.072;6.678;2023-06-22T14:34:37;23.50;99.90
3001;DHT22;1510;51.072;6.678;2023-06-22T14:37:07;23.50;99.90
3001;DHT22;1510;51.072;6.678;2023-06-22T14:39:35;23.60;99.90
3001;DHT22;1510;51.072;6.678;2023-06-22T14:42:02;23.70;99.90
3001;DHT22;1510;51.072;6.678;2023-06-22T14:44:29;23.70;99.90
3001;DHT22;1510;51.072;6.678;2023-06-22T14:46:56;23.70;99.90
3001;DHT22;1510;51.072;6.678;2023-06-22T14:49:23;23.60;99.90
3001;DHT22;1510;51.072;6.678;2023-06-22T14:51:50;23.90;99.90
3001;DHT22;1510;51.072;6.678;2023-06-22T14:54:19;24.00;99.90
3001;DHT22;1510;51.072;6.678;2023-06-22T14:56:47;24.20;99.90
3001;DHT22;1510;51.072;6.678;2023-06-22T14:59:14;24.20;99.90
3001;DHT22;1510;51.072;6.678;2023-06-22T15:01:40;24.20;99.90
3001;DHT22;1510;51.072;6.678;2023-06-22T15:04:07;24.10;99.90
3001;DHT22;1510;51.072;6.678;2023-06-22T15:06:34;24.00;99.90
3001;DHT22;1510;51.072;6.678;2023-06-22T15:09:01;24.00;99.90
3001;DHT22;1510;51.072;6.678;2023-06-22T15:11:29;23.90;99.90
3001;DHT22;1510;51.072;6.678;2023-06-22T15:13:58;23.60;99.90
3001;DHT22;1510;51.072;6.678;2023-06-22T15:16:26;23.40;99.90
3001;DHT22;1510;51.072;6.678;2023-06-22T15:18:53;23.40;99.90
3001;DHT22;1510;51.072;6.678;2023-06-22T15:21:20;23.30;99.90
3001;DHT22;1510;51.072;6.678;2023-06-22T15:23:47;23.30;99.90
3001;DHT22;1510;51.072;6.678;2023-06-22T15:26:14;23.20;99.90
3001;DHT22;1510;51.072;6.678;2023-06-22T15:28:42;23.00;99.90
3001;DHT22;1510;51.072;6.678;2023-06-22T15:31:09;22.80;99.90
3001;DHT22;1510;51.072;6.678;2023-06-22T15:33:36;22.80;99.90
3001;DHT22;1510;51.072;6.678;2023-06-22T15:36:03;22.70;99.90
3001;DHT22;1510;51.072;6.678;2023-06-22T15:38:32;22.60;99.90
3001;DHT22;1510;51.072;6.678;2023-06-22T15:40:59;22.50;99.90
3001;DHT22;1510;51.072;6.678;2023-06-22T15:43:26;22.30;99.90
3001;DHT22;1510;51.072;6.678;2023-06-22T15:45:54;22.00;99.90
3001;DHT22;1510;51.072;6.678;2023-06-22T15:48:22;21.70;99.90
3001;DHT22;1510;51.072;6.678;2023-06-22T15:50:49;21.60;99.90
3001;DHT22;1510;51.072;6.678;2023-06-22T15:53:16;21.40;99.90
3001;DHT22;1510;51.072;6.678;2023-06-22T15:55:43;21.30;99.90
3001;DHT22;1510;51.072;6.678;2023-06-22T15:58:10;21.20;99.90
3001;DHT22;1510;51.072;6.678;2023-06-22T16:00:38;21.10;99.90
3001;DHT22;1510;51.072;6.678;2023-06-22T16:03:07;21.00;99.90
3001;DHT22;1510;51.072;6.678;2023-06-22T16:05:33;21.00;99.90
3001;DHT22;1510;51.072;6.678;2023-06-22T16:08:00;20.90;99.90